Terminal Aerodrome Forecast
Issued by NWS Omaha/Valley, NE

Home | Current Version | Previous Version | Text Only | Print | Product List | Glossary On
Versions: 1 2 3 4 5 6 7 8 9 10 11 12 13 14 15 16 17 18 19 20 21 22 23 24 25 26 27 28
000
FTUS43 KOAX 230520
TAFOMA
TAF
KOMA 230520Z 2306/2406 15006KT P6SM BKN100
     FM231200 16008KT P6SM OVC080
      TEMPO 2315/2319 5SM -SHRA BKN035
     FM231900 16015KT P6SM OVC040 PROB30 2319/2401 4SM -SHRA OVC025=

USA.gov is the U.S. government's official web portal to all federal, state and local government web resources and services.